createdAt,value
2023-05-08T00:22:21.520Z,7.70
2023-05-08T00:27:25.332Z,7.80
2023-05-08T00:32:29.193Z,7.70
2023-05-08T00:37:33.882Z,7.70
2023-05-08T00:42:37.783Z,7.40
2023-05-08T00:47:42.281Z,7.50
2023-05-08T00:52:47.226Z,7.30
2023-05-08T00:57:52.393Z,7.20
2023-05-08T01:02:55.712Z,7.20
2023-05-08T01:08:00.477Z,7.30
2023-05-08T01:13:11.497Z,7.40
2023-05-08T01:18:19.851Z,7.30
2023-05-08T01:23:57.521Z,7.40
2023-05-08T01:29:36.733Z,7.30
2023-05-08T01:34:49.898Z,7.40
2023-05-08T01:40:03.281Z,7.20
2023-05-08T01:45:13.980Z,7.00
2023-05-08T01:50:31.097Z,7.10
2023-05-08T01:55:37.934Z,7.10
2023-05-08T02:00:41.485Z,6.90
2023-05-08T02:05:48.649Z,6.90
2023-05-08T02:10:53.857Z,6.80
2023-05-08T02:15:59.428Z,6.80
2023-05-08T02:21:06.270Z,6.70
2023-05-08T02:26:10.209Z,6.70
2023-05-08T02:31:14.440Z,6.60
2023-05-08T02:36:20.026Z,6.60
2023-05-08T02:41:27.444Z,6.40
2023-05-08T02:46:40.564Z,6.40
2023-05-08T02:51:54.774Z,6.30
2023-05-08T02:57:06.526Z,6.10
2023-05-08T03:02:12.685Z,5.90
2023-05-08T03:07:21.949Z,5.90
2023-05-08T03:12:28.864Z,5.70
2023-05-08T03:17:34.551Z,5.50
2023-05-08T03:22:42.412Z,5.50
2023-05-08T03:27:46.386Z,5.60
2023-05-08T03:32:50.615Z,5.70
2023-05-08T03:37:55.652Z,5.60
2023-05-08T03:43:01.083Z,5.50
2023-05-08T03:48:06.914Z,5.30
2023-05-08T03:53:12.279Z,5.20
2023-05-08T03:58:21.839Z,5.30
2023-05-08T04:03:32.157Z,5.30
2023-05-08T04:08:43.576Z,5.30
2023-05-08T04:13:54.135Z,5.50
2023-05-08T04:19:02.975Z,5.50
2023-05-08T04:24:12.503Z,5.70
2023-05-08T04:29:17.025Z,5.80
2023-05-08T04:34:20.969Z,6.00
2023-05-08T04:39:26.418Z,6.20
2023-05-08T04:44:30.691Z,6.40
2023-05-08T04:49:34.216Z,6.70
2023-05-08T04:54:39.683Z,6.80
2023-05-08T04:59:42.975Z,7.10
2023-05-08T05:04:46.659Z,7.30
2023-05-08T05:09:52.820Z,7.50
2023-05-08T05:14:56.635Z,9.10
2023-05-08T05:20:01.550Z,11.30
2023-05-08T05:25:07.900Z,13.30
2023-05-08T05:30:12.619Z,14.00
2023-05-08T05:35:16.588Z,14.30
2023-05-08T05:40:21.755Z,14.80
2023-05-08T05:45:25.178Z,14.90
2023-05-08T05:50:28.950Z,15.40
2023-05-08T05:55:35.607Z,16.10
2023-05-08T06:00:39.081Z,16.10
2023-05-08T06:05:42.718Z,15.90
2023-05-08T06:10:47.517Z,16.00
2023-05-08T06:15:53.930Z,16.30
2023-05-08T06:20:57.989Z,15.70
2023-05-08T06:26:04.131Z,15.40
2023-05-08T06:31:07.550Z,16.10
2023-05-08T06:36:11.736Z,15.60
2023-05-08T06:41:16.729Z,17.00
2023-05-08T06:46:21.063Z,16.50
2023-05-08T06:51:24.572Z,16.20
2023-05-08T06:56:29.726Z,16.90
2023-05-08T07:01:33.162Z,17.30
2023-05-08T07:06:36.534Z,17.80
2023-05-08T07:11:41.335Z,17.50
2023-05-08T07:16:44.664Z,17.40
2023-05-08T07:21:48.094Z,17.70
2023-05-08T07:26:52.992Z,17.80
2023-05-08T07:31:56.782Z,17.10
2023-05-08T07:37:00.870Z,17.40
2023-05-08T07:42:06.038Z,18.30
2023-05-08T07:47:09.609Z,18.70
2023-05-08T07:52:13.128Z,18.10
2023-05-08T07:57:18.670Z,18.10
2023-05-08T08:02:22.975Z,18.50
2023-05-08T08:07:26.739Z,18.60
2023-05-08T08:12:32.049Z,18.90
2023-05-08T08:17:35.424Z,19.40
2023-05-08T08:22:39.203Z,18.30
2023-05-08T08:27:44.049Z,18.80
2023-05-08T08:32:47.594Z,18.50
2023-05-08T08:37:51.617Z,19.10
2023-05-08T08:42:56.590Z,18.70
2023-05-08T08:48:02.517Z,19.30
2023-05-08T08:53:10.280Z,18.90
2023-05-08T08:58:23.150Z,18.90
2023-05-08T09:03:27.317Z,18.10
2023-05-08T09:08:32.487Z,18.90
2023-05-08T09:13:37.182Z,20.10
2023-05-08T09:18:40.645Z,20.10
2023-05-08T09:23:59.359Z,21.40
2023-05-08T09:29:14.495Z,20.80
2023-05-08T09:34:27.126Z,19.70
2023-05-08T09:39:30.666Z,19.40
2023-05-08T09:44:46.656Z,20.50
2023-05-08T09:49:59.809Z,20.80
2023-05-08T09:55:05.280Z,20.50
2023-05-08T10:00:13.264Z,20.90
2023-05-08T10:05:24.279Z,20.90
2023-05-08T10:10:29.066Z,21.40
2023-05-08T10:15:35.057Z,21.10
2023-05-08T10:20:40.717Z,20.50
2023-05-08T10:25:46.520Z,20.60
2023-05-08T10:30:57.004Z,20.60
2023-05-08T10:36:01.127Z,20.80
2023-05-08T10:41:05.483Z,20.60
2023-05-08T10:46:17.599Z,21.60
2023-05-08T10:51:27.614Z,21.50
2023-05-08T10:56:31.128Z,21.40
2023-05-08T11:01:40.119Z,21.50
2023-05-08T11:06:46.039Z,22.40
2023-05-08T11:12:22.061Z,21.60
2023-05-08T11:17:31.187Z,22.10
2023-05-08T11:22:37.730Z,22.10
2023-05-08T11:28:11.630Z,21.90
2023-05-08T11:33:17.777Z,21.30
2023-05-08T11:38:30.643Z,21.60
2023-05-08T11:43:58.861Z,21.40
2023-05-08T11:49:03.919Z,22.80
2023-05-08T11:54:09.155Z,22.60
2023-05-08T11:59:13.378Z,21.60
2023-05-08T12:04:18.370Z,21.10
2023-05-08T12:09:22.899Z,21.70
2023-05-08T12:14:26.433Z,21.30
2023-05-08T12:19:34.752Z,22.50
2023-05-08T12:24:39.682Z,22.10
2023-05-08T12:29:45.655Z,21.80
2023-05-08T12:34:55.251Z,22.30
2023-05-08T12:39:59.365Z,22.30
2023-05-08T12:45:02.784Z,22.90
2023-05-08T12:50:10.461Z,23.30
2023-05-08T12:55:24.568Z,22.50
2023-05-08T13:00:39.085Z,22.40
2023-05-08T13:05:46.061Z,22.50
2023-05-08T13:10:50.828Z,22.00
2023-05-08T13:15:55.521Z,22.40
2023-05-08T13:21:02.153Z,22.60
2023-05-08T13:26:05.843Z,22.50
2023-05-08T13:31:09.247Z,22.00
2023-05-08T13:36:14.174Z,22.70
2023-05-08T13:41:18.120Z,22.30
2023-05-08T13:46:21.885Z,22.10
2023-05-08T13:51:26.831Z,21.50
2023-05-08T13:56:33.265Z,21.50
2023-05-08T14:01:37.773Z,21.50
2023-05-08T14:06:42.573Z,21.30
2023-05-08T14:11:46.043Z,21.80
2023-05-08T14:16:51.005Z,21.50
2023-05-08T14:21:55.887Z,21.80
2023-05-08T14:26:59.625Z,22.30
2023-05-08T14:32:03.789Z,22.20
2023-05-08T14:37:09.003Z,22.70
2023-05-08T14:47:19.306Z,22.10
2023-05-08T14:52:24.021Z,22.70
2023-05-08T14:57:27.377Z,22.60
2023-05-08T15:02:30.807Z,21.80
2023-05-08T15:07:36.145Z,21.40
2023-05-08T15:12:39.600Z,22.20
2023-05-08T15:17:43.013Z,21.70
2023-05-08T15:22:47.960Z,21.90
2023-05-08T15:27:52.882Z,22.20
2023-05-08T15:32:57.051Z,21.90
2023-05-08T15:38:05.976Z,21.30
2023-05-08T15:43:09.472Z,21.60
2023-05-08T15:48:13.090Z,21.70
2023-05-08T15:53:18.023Z,21.80
2023-05-08T15:58:21.397Z,21.80
2023-05-08T16:03:25.308Z,21.70
2023-05-08T16:08:30.825Z,21.00
2023-05-08T16:13:34.133Z,21.70
2023-05-08T16:18:37.484Z,21.00
2023-05-08T16:23:42.138Z,21.10
2023-05-08T16:28:45.781Z,20.90
2023-05-08T16:33:49.192Z,21.00
2023-05-08T16:38:53.940Z,20.80
2023-05-08T16:43:57.270Z,20.50
2023-05-08T16:49:00.741Z,20.20
2023-05-08T16:54:05.735Z,20.20
2023-05-08T16:59:09.505Z,19.90
2023-05-08T17:04:13.111Z,19.90
2023-05-08T17:09:18.518Z,19.50
2023-05-08T17:14:21.829Z,19.00
2023-05-08T17:19:25.358Z,19.00
2023-05-08T17:24:31.136Z,18.40
2023-05-08T17:29:34.994Z,17.90
2023-05-08T17:34:38.714Z,17.60
2023-05-08T17:39:43.456Z,17.10
2023-05-08T17:44:47.226Z,16.90
2023-05-08T17:49:50.613Z,16.80
2023-05-08T17:54:55.332Z,16.50
2023-05-08T17:59:59.486Z,16.30
2023-05-08T18:05:02.932Z,16.30
2023-05-08T18:10:09.265Z,15.90
2023-05-08T18:15:13.449Z,15.80
2023-05-08T18:20:16.947Z,15.50
2023-05-08T18:25:22.372Z,15.50
2023-05-08T18:30:26.065Z,15.20
2023-05-08T18:35:29.822Z,14.90
2023-05-08T18:40:34.673Z,14.90
2023-05-08T18:45:39.011Z,14.80
2023-05-08T18:50:42.420Z,14.80
2023-05-08T18:55:47.640Z,14.80
2023-05-08T19:00:54.506Z,14.50
2023-05-08T19:05:58.335Z,14.40
2023-05-08T19:11:03.007Z,14.30
2023-05-08T19:16:06.942Z,14.00
2023-05-08T19:21:10.414Z,13.90
2023-05-08T19:26:15.652Z,13.70
2023-05-08T19:31:19.409Z,13.50
2023-05-08T19:36:23.561Z,13.30
2023-05-08T19:41:28.677Z,13.20
2023-05-08T19:46:31.980Z,13.20
2023-05-08T19:51:35.372Z,13.20
2023-05-08T19:56:40.123Z,13.00
2023-05-08T20:01:43.971Z,13.00
2023-05-08T20:06:47.605Z,12.90
2023-05-08T20:11:52.406Z,13.10
2023-05-08T20:16:56.023Z,12.90
2023-05-08T20:21:59.493Z,12.90
2023-05-08T20:27:04.581Z,12.80
2023-05-08T20:32:08.369Z,12.90
2023-05-08T20:37:12.138Z,12.70
2023-05-08T20:42:17.044Z,12.40
2023-05-08T20:47:20.561Z,12.50
2023-05-08T20:52:24.293Z,12.30
2023-05-08T20:57:29.381Z,12.30
2023-05-08T21:02:33.942Z,12.00
2023-05-08T21:07:37.499Z,11.70
2023-05-08T21:12:44.533Z,11.70
2023-05-08T21:17:48.541Z,11.70
2023-05-08T21:22:51.929Z,11.90
2023-05-08T21:27:57.031Z,11.80
2023-05-08T21:33:00.520Z,11.60
2023-05-08T21:38:05.725Z,11.50
2023-05-08T21:43:10.521Z,11.50
2023-05-08T21:48:13.890Z,11.50
2023-05-08T21:53:17.775Z,11.60
2023-05-08T21:58:23.091Z,11.60
2023-05-08T22:03:26.560Z,11.50
2023-05-08T22:08:30.333Z,11.30
2023-05-08T22:13:35.022Z,11.20
2023-05-08T22:18:38.435Z,11.20
2023-05-08T22:23:42.082Z,11.20
2023-05-08T22:28:47.085Z,11.10
2023-05-08T22:33:51.456Z,10.90
2023-05-08T22:38:54.966Z,11.00
2023-05-08T22:44:00.372Z,10.90
2023-05-08T22:49:03.676Z,10.80
2023-05-08T22:54:07.196Z,10.60
2023-05-08T22:59:12.677Z,10.70
2023-05-08T23:04:16.144Z,10.50
2023-05-08T23:09:19.666Z,10.60
2023-05-08T23:14:25.183Z,10.50
2023-05-08T23:19:28.798Z,10.40
2023-05-08T23:24:35.162Z,10.40
2023-05-08T23:29:40.734Z,10.30
2023-05-08T23:34:44.152Z,10.40
2023-05-08T23:39:47.981Z,10.40
2023-05-08T23:44:53.747Z,10.50
2023-05-08T23:49:57.694Z,10.30
2023-05-08T23:55:01.230Z,10.30
